Wetterdaten: Woche 20.06.05 - 26.06.05 (KW25)
Datum Zeit Temperatur Luftfeuchte Luftdruck Niederschlag Windrichtung Wind
20.06.2005 00:00 15,7 C 61 % 1019 hPa 0,0 l/m N 0,0 km/h (0 Bft)
20.06.2005 01:00 14,3 C 66 % 1019 hPa 0,0 l/m N 0,0 km/h (0 Bft)
20.06.2005 02:00 13,8 C 68 % 1019 hPa 0,0 l/m NW 4,8 km/h (1 Bft)
20.06.2005 03:00 13,6 C 69 % 1019 hPa 0,0 l/m NW 9,1 km/h (2 Bft)
20.06.2005 04:00 13,2 C 71 % 1019 hPa 0,0 l/m NW 6,4 km/h (2 Bft)
20.06.2005 05:00 12,7 C 74 % 1018 hPa 0,0 l/m W-NW 6,8 km/h (2 Bft)
20.06.2005 06:00 13,0 C 75 % 1019 hPa 0,0 l/m NW 6,2 km/h (2 Bft)
20.06.2005 07:00 14,6 C 72 % 1019 hPa 0,0 l/m N-NW 6,5 km/h (2 Bft)
20.06.2005 08:00 17,1 C 62 % 1019 hPa 0,0 l/m N 8,7 km/h (2 Bft)
20.06.2005 09:00 20,1 C 51 % 1019 hPa 0,0 l/m N-NO 11,3 km/h (2 Bft)
20.06.2005 10:00 23,4 C 40 % 1019 hPa 0,0 l/m N-NO 15,5 km/h (3 Bft)
20.06.2005 11:00 25,3 C 36 % 1018 hPa 0,0 l/m N-NO 17,7 km/h (3 Bft)
20.06.2005 12:00 26,6 C 33 % 1018 hPa 0,0 l/m NO 19,2 km/h (3 Bft)
20.06.2005 13:00 27,6 C 32 % 1018 hPa 0,0 l/m O-NO 19,4 km/h (3 Bft)
20.06.2005 14:00 28,6 C 31 % 1018 hPa 0,0 l/m O-NO 16,4 km/h (3 Bft)
20.06.2005 15:00 29,2 C 28 % 1018 hPa 0,0 l/m O-NO 17,2 km/h (3 Bft)
20.06.2005 16:00 29,9 C 27 % 1018 hPa 0,0 l/m O-NO 13,5 km/h (3 Bft)
20.06.2005 17:00 30,2 C 28 % 1017 hPa 0,0 l/m N-NO 14,0 km/h (3 Bft)
20.06.2005 18:00 30,0 C 30 % 1017 hPa 0,0 l/m N-NO 13,6 km/h (3 Bft)
20.06.2005 19:00 28,4 C 32 % 1017 hPa 0,0 l/m N-NO 13,8 km/h (3 Bft)
20.06.2005 20:00 25,8 C 36 % 1017 hPa 0,0 l/m N-NO 8,4 km/h (2 Bft)
20.06.2005 21:00 23,0 C 46 % 1018 hPa 0,0 l/m N 0,0 km/h (0 Bft)
20.06.2005 22:00 20,1 C 55 % 1018 hPa 0,0 l/m N 0,0 km/h (0 Bft)
20.06.2005 23:00 18,3 C 62 % 1018 hPa 0,0 l/m N 0,0 km/h (0 Bft)
21.06.2005 00:00 17,3 C 64 % 1018 hPa 0,0 l/m W 5,4 km/h (1 Bft)
21.06.2005 01:00 16,6 C 67 % 1018 hPa 0,0 l/m W-NW 0,6 km/h (0 Bft)
21.06.2005 02:00 15,7 C 72 % 1018 hPa 0,0 l/m W-NW 0,9 km/h (0 Bft)
21.06.2005 03:00 15,5 C 75 % 1018 hPa 0,0 l/m W-NW 8,6 km/h (2 Bft)
21.06.2005 04:00 14,9 C 76 % 1018 hPa 0,0 l/m N 0,0 km/h (0 Bft)
21.06.2005 05:00 13,8 C 81 % 1018 hPa 0,0 l/m N 0,0 km/h (0 Bft)
21.06.2005 06:00 14,0 C 86 % 1019 hPa 0,0 l/m N 0,0 km/h (0 Bft)
21.06.2005 07:00 15,1 C 86 % 1019 hPa 0,0 l/m N 0,0 km/h (0 Bft)
21.06.2005 08:00 18,0 C 75 % 1019 hPa 0,0 l/m O-NO 0,8 km/h (0 Bft)
21.06.2005 09:00 20,8 C 60 % 1019 hPa 0,0 l/m S 6,2 km/h (2 Bft)
21.06.2005 10:00 24,2 C 50 % 1019 hPa 0,0 l/m S 5,5 km/h (1 Bft)
21.06.2005 11:00 27,0 C 42 % 1019 hPa 0,0 l/m O 7,2 km/h (2 Bft)
21.06.2005 12:00 28,5 C 35 % 1019 hPa 0,0 l/m O-SO 7,4 km/h (2 Bft)
21.06.2005 13:00 29,5 C 32 % 1019 hPa 0,0 l/m O 8,7 km/h (2 Bft)
21.06.2005 14:00 30,4 C 31 % 1019 hPa 0,0 l/m O-NO 8,2 km/h (2 Bft)
21.06.2005 15:00 31,0 C 30 % 1019 hPa 0,0 l/m N-NO 9,4 km/h (2 Bft)
21.06.2005 16:00 31,6 C 29 % 1018 hPa 0,0 l/m O 6,9 km/h (2 Bft)
21.06.2005 17:00 31,4 C 29 % 1018 hPa 0,0 l/m N 4,4 km/h (1 Bft)
21.06.2005 18:00 29,8 C 36 % 1018 hPa 0,0 l/m N 1,5 km/h (1 Bft)
21.06.2005 19:00 27,4 C 47 % 1018 hPa 0,0 l/m N 0,2 km/h (0 Bft)
21.06.2005 20:00 25,7 C 55 % 1019 hPa 0,0 l/m N 0,0 km/h (0 Bft)
21.06.2005 21:00 23,3 C 60 % 1019 hPa 0,0 l/m S-SW 0,5 km/h (0 Bft)
21.06.2005 22:00 21,4 C 65 % 1019 hPa 0,0 l/m W-NW 0,8 km/h (0 Bft)
21.06.2005 23:00 19,9 C 70 % 1019 hPa 0,0 l/m N 0,0 km/h (0 Bft)
22.06.2005 00:00 18,7 C 74 % 1020 hPa 0,0 l/m N 0,0 km/h (0 Bft)
22.06.2005 01:00 17,7 C 79 % 1020 hPa 0,0 l/m N 0,0 km/h (0 Bft)
22.06.2005 02:00 16,8 C 83 % 1020 hPa 0,0 l/m N 0,0 km/h (0 Bft)
22.06.2005 03:00 16,2 C 87 % 1020 hPa 0,0 l/m N 0,0 km/h (0 Bft)
22.06.2005 04:00 15,6 C 91 % 1020 hPa 0,0 l/m N 0,0 km/h (0 Bft)
22.06.2005 05:00 15,3 C 93 % 1020 hPa 0,0 l/m N 0,0 km/h (0 Bft)
22.06.2005 06:00 15,6 C 94 % 1021 hPa 0,0 l/m N 0,3 km/h (0 Bft)
22.06.2005 07:00 16,7 C 92 % 1021 hPa 0,0 l/m N 0,0 km/h (0 Bft)
22.06.2005 08:00 19,0 C 81 % 1021 hPa 0,0 l/m O-SO 1,7 km/h (1 Bft)
22.06.2005 09:00 21,8 C 68 % 1021 hPa 0,0 l/m O 2,3 km/h (1 Bft)
22.06.2005 10:00 24,6 C 56 % 1021 hPa 0,0 l/m W 3,0 km/h (1 Bft)
22.06.2005 11:00 26,9 C 49 % 1021 hPa 0,0 l/m N-NW 5,2 km/h (1 Bft)
22.06.2005 12:00 27,8 C 44 % 1021 hPa 0,0 l/m NW 8,6 km/h (2 Bft)
22.06.2005 13:00 28,8 C 43 % 1021 hPa 0,0 l/m N 9,2 km/h (2 Bft)
22.06.2005 14:00 29,4 C 43 % 1021 hPa 0,0 l/m NW 10,7 km/h (2 Bft)
22.06.2005 15:00 29,6 C 43 % 1021 hPa 0,0 l/m NW 11,2 km/h (2 Bft)
22.06.2005 16:00 28,4 C 45 % 1021 hPa 0,0 l/m W 16,3 km/h (3 Bft)
22.06.2005 17:00 21,4 C 71 % 1022 hPa 0,0 l/m S 8,4 km/h (2 Bft)
22.06.2005 18:00 22,4 C 64 % 1022 hPa 0,0 l/m W 5,0 km/h (1 Bft)
22.06.2005 19:00 23,8 C 64 % 1021 hPa 0,0 l/m W 3,8 km/h (1 Bft)
22.06.2005 20:00 22,6 C 69 % 1021 hPa 0,0 l/m S-SW 0,6 km/h (0 Bft)
22.06.2005 21:00 20,8 C 75 % 1022 hPa 0,0 l/m N 0,0 km/h (0 Bft)
22.06.2005 22:00 19,6 C 76 % 1022 hPa 0,0 l/m NW 0,8 km/h (0 Bft)
22.06.2005 23:00 18,6 C 75 % 1022 hPa 0,0 l/m N 0,0 km/h (0 Bft)
23.06.2005 00:00 17,3 C 77 % 1022 hPa 0,0 l/m N 0,0 km/h (0 Bft)
23.06.2005 01:00 17,0 C 72 % 1022 hPa 0,0 l/m W-NW 3,1 km/h (1 Bft)
23.06.2005 02:00 16,8 C 66 % 1022 hPa 0,0 l/m NW 3,5 km/h (1 Bft)
23.06.2005 03:00 15,9 C 71 % 1022 hPa 0,0 l/m W-NW 0,4 km/h (0 Bft)
23.06.2005 04:00 15,3 C 75 % 1022 hPa 0,0 l/m W-NW 7,5 km/h (2 Bft)
23.06.2005 05:00 15,0 C 76 % 1022 hPa 0,0 l/m W-NW 8,8 km/h (2 Bft)
23.06.2005 06:00 15,2 C 75 % 1022 hPa 0,0 l/m N-NW 8,6 km/h (2 Bft)
23.06.2005 07:00 16,3 C 74 % 1022 hPa 0,0 l/m N-NW 4,8 km/h (1 Bft)
23.06.2005 08:00 18,2 C 68 % 1022 hPa 0,0 l/m N 8,3 km/h (2 Bft)
23.06.2005 09:00 20,7 C 59 % 1022 hPa 0,0 l/m N 6,9 km/h (2 Bft)
23.06.2005 10:00 24,1 C 49 % 1022 hPa 0,0 l/m N-NO 9,8 km/h (2 Bft)
23.06.2005 11:00 26,3 C 43 % 1022 hPa 0,0 l/m N 11,8 km/h (2 Bft)
23.06.2005 12:00 27,8 C 40 % 1022 hPa 0,0 l/m N-NO 10,9 km/h (2 Bft)
23.06.2005 13:00 28,8 C 38 % 1021 hPa 0,0 l/m O-NO 11,8 km/h (2 Bft)
23.06.2005 14:00 29,8 C 35 % 1021 hPa 0,0 l/m O-NO 11,9 km/h (2 Bft)
23.06.2005 15:00 30,4 C 31 % 1020 hPa 0,0 l/m W 8,5 km/h (2 Bft)
23.06.2005 16:00 31,1 C 31 % 1020 hPa 0,0 l/m O-NO 12,2 km/h (2 Bft)
23.06.2005 17:00 31,3 C 32 % 1020 hPa 0,0 l/m N 14,5 km/h (3 Bft)
23.06.2005 18:00 30,5 C 33 % 1019 hPa 0,0 l/m N 15,6 km/h (3 Bft)
23.06.2005 19:00 28,0 C 36 % 1019 hPa 0,0 l/m O-NO 11,5 km/h (2 Bft)
23.06.2005 20:00 25,8 C 44 % 1019 hPa 0,0 l/m O 2,8 km/h (1 Bft)
23.06.2005 21:00 23,3 C 50 % 1019 hPa 0,0 l/m NW 0,2 km/h (0 Bft)
23.06.2005 22:00 21,5 C 58 % 1019 hPa 0,0 l/m N 0,0 km/h (0 Bft)
23.06.2005 23:00 20,6 C 63 % 1019 hPa 0,0 l/m W 1,2 km/h (1 Bft)
24.06.2005 00:00 19,5 C 67 % 1019 hPa 0,0 l/m W-NW 2,9 km/h (1 Bft)
24.06.2005 01:00 18,9 C 70 % 1019 hPa 0,0 l/m W-NW 1,8 km/h (1 Bft)
24.06.2005 02:00 18,2 C 74 % 1019 hPa 0,0 l/m NW 6,0 km/h (2 Bft)
24.06.2005 03:00 17,6 C 77 % 1018 hPa 0,0 l/m N 0,0 km/h (0 Bft)
24.06.2005 04:00 17,0 C 82 % 1018 hPa 0,0 l/m N 0,0 km/h (0 Bft)
24.06.2005 05:00 16,4 C 84 % 1018 hPa 0,0 l/m N 0,0 km/h (0 Bft)
24.06.2005 06:00 16,5 C 87 % 1018 hPa 0,0 l/m N 0,0 km/h (0 Bft)
24.06.2005 07:00 17,5 C 86 % 1018 hPa 0,0 l/m N 0,0 km/h (0 Bft)
24.06.2005 08:00 19,6 C 81 % 1019 hPa 0,0 l/m N 0,0 km/h (0 Bft)
24.06.2005 09:00 22,5 C 71 % 1018 hPa 0,0 l/m S 5,7 km/h (1 Bft)
24.06.2005 10:00 25,5 C 58 % 1018 hPa 0,0 l/m S-SO 9,4 km/h (2 Bft)
24.06.2005 11:00 27,7 C 51 % 1018 hPa 0,0 l/m S-SW 11,3 km/h (2 Bft)
24.06.2005 12:00 29,4 C 47 % 1018 hPa 0,0 l/m S-SW 10,4 km/h (2 Bft)
24.06.2005 13:00 30,2 C 42 % 1017 hPa 0,0 l/m SW 14,9 km/h (3 Bft)
24.06.2005 14:00 30,9 C 41 % 1017 hPa 0,0 l/m S-SW 15,6 km/h (3 Bft)
24.06.2005 15:00 31,7 C 38 % 1016 hPa 0,0 l/m SW 14,8 km/h (3 Bft)
24.06.2005 16:00 32,0 C 36 % 1016 hPa 0,0 l/m S-SW 13,5 km/h (3 Bft)
24.06.2005 17:00 32,1 C 36 % 1016 hPa 0,0 l/m W-SW 10,9 km/h (2 Bft)
24.06.2005 18:00 31,8 C 38 % 1015 hPa 0,0 l/m W-SW 4,4 km/h (1 Bft)
24.06.2005 19:00 29,7 C 47 % 1015 hPa 0,0 l/m W 1,4 km/h (1 Bft)
24.06.2005 20:00 27,2 C 53 % 1015 hPa 0,0 l/m NW 0,8 km/h (0 Bft)
24.06.2005 21:00 25,0 C 58 % 1015 hPa 0,0 l/m W 3,3 km/h (1 Bft)
24.06.2005 22:00 23,7 C 61 % 1016 hPa 0,0 l/m N 0,0 km/h (0 Bft)
24.06.2005 23:00 22,1 C 69 % 1016 hPa 0,0 l/m N 0,0 km/h (0 Bft)
25.06.2005 00:00 21,1 C 72 % 1018 hPa 5,0 l/m SW 25,2 km/h (4 Bft)
25.06.2005 01:00 18,1 C 92 % 1019 hPa 3,0 l/m S-SW 22,6 km/h (4 Bft)
25.06.2005 02:00 17,6 C 94 % 1019 hPa 2,0 l/m W-NW 12,4 km/h (3 Bft)
25.06.2005 03:00 17,4 C 96 % 1018 hPa 0,0 l/m W 14,7 km/h (3 Bft)
25.06.2005 04:00 17,3 C 96 % 1018 hPa 0,0 l/m S 7,8 km/h (2 Bft)
25.06.2005 05:00 17,0 C 99 % 1018 hPa 0,0 l/m S-SO 6,1 km/h (2 Bft)
25.06.2005 06:00 16,7 C 100 % 1018 hPa 0,0 l/m SO 0,2 km/h (0 Bft)
25.06.2005 07:00 17,1 C 100 % 1018 hPa 0,0 l/m SO 1,8 km/h (1 Bft)
25.06.2005 08:00 18,7 C 99 % 1019 hPa 0,0 l/m W 3,0 km/h (1 Bft)
25.06.2005 09:00 20,8 C 84 % 1018 hPa 0,0 l/m S 10,2 km/h (2 Bft)
25.06.2005 10:00 23,4 C 71 % 1018 hPa 0,0 l/m S-SW 10,3 km/h (2 Bft)
25.06.2005 11:00 25,1 C 62 % 1018 hPa 0,0 l/m S 11,9 km/h (2 Bft)
25.06.2005 12:00 26,4 C 52 % 1018 hPa 0,0 l/m W-SW 16,5 km/h (3 Bft)
25.06.2005 13:00 27,2 C 45 % 1018 hPa 0,0 l/m S-SW 14,4 km/h (3 Bft)
25.06.2005 14:00 28,0 C 44 % 1018 hPa 0,0 l/m W-SW 17,7 km/h (3 Bft)
25.06.2005 15:00 27,9 C 44 % 1018 hPa 0,0 l/m W-SW 20,0 km/h (4 Bft)
25.06.2005 16:00 27,7 C 46 % 1017 hPa 0,0 l/m W-SW 18,9 km/h (3 Bft)
25.06.2005 17:00 26,7 C 50 % 1018 hPa 0,0 l/m SW 17,2 km/h (3 Bft)
25.06.2005 18:00 25,9 C 51 % 1018 hPa 0,0 l/m SW 17,7 km/h (3 Bft)
25.06.2005 19:00 23,6 C 56 % 1019 hPa 0,0 l/m W 13,4 km/h (3 Bft)
25.06.2005 20:00 21,9 C 68 % 1019 hPa 0,0 l/m W 10,9 km/h (2 Bft)
25.06.2005 21:00 19,5 C 80 % 1019 hPa 0,0 l/m W-SW 8,2 km/h (2 Bft)
25.06.2005 22:00 18,6 C 85 % 1020 hPa 0,0 l/m W-SW 0,5 km/h (0 Bft)
25.06.2005 23:00 18,7 C 90 % 1021 hPa 0,0 l/m O-SO 0,6 km/h (0 Bft)
26.06.2005 00:00 18,5 C 93 % 1021 hPa 0,0 l/m S-SO 3,0 km/h (1 Bft)
26.06.2005 01:00 18,0 C 95 % 1021 hPa 0,0 l/m S 6,4 km/h (2 Bft)
26.06.2005 02:00 17,7 C 97 % 1021 hPa 0,0 l/m S 12,4 km/h (3 Bft)
26.06.2005 03:00 17,5 C 96 % 1022 hPa 0,0 l/m S 12,3 km/h (3 Bft)
26.06.2005 04:00 17,2 C 96 % 1022 hPa 0,0 l/m S-SW 9,8 km/h (2 Bft)
26.06.2005 05:00 17,2 C 96 % 1022 hPa 0,0 l/m S-SW 5,3 km/h (1 Bft)
26.06.2005 06:00 17,0 C 96 % 1022 hPa 0,0 l/m N 0,0 km/h (0 Bft)
26.06.2005 07:00 17,6 C 96 % 1022 hPa 0,0 l/m S-SW 3,1 km/h (1 Bft)
26.06.2005 08:00 19,1 C 92 % 1023 hPa 0,0 l/m O 8,1 km/h (2 Bft)
26.06.2005 09:00 21,1 C 84 % 1023 hPa 0,0 l/m S 6,4 km/h (2 Bft)
26.06.2005 10:00 23,6 C 71 % 1023 hPa 0,0 l/m O-NO 6,1 km/h (2 Bft)
26.06.2005 11:00 24,1 C 69 % 1023 hPa 0,0 l/m W 1,9 km/h (1 Bft)
26.06.2005 12:00 26,0 C 57 % 1023 hPa 0,0 l/m N 6,2 km/h (2 Bft)
26.06.2005 13:00 27,2 C 51 % 1023 hPa 0,0 l/m NO 8,1 km/h (2 Bft)
26.06.2005 14:00 27,8 C 50 % 1023 hPa 0,0 l/m O-NO 5,8 km/h (2 Bft)
26.06.2005 15:00 28,6 C 47 % 1023 hPa 0,0 l/m SO 6,8 km/h (2 Bft)
26.06.2005 17:00 24,2 C 76 % 1022 hPa 2,0 l/m W 5,5 km/h (1 Bft)
26.06.2005 18:00 25,9 C 72 % 1022 hPa 0,0 l/m N-NW 4,1 km/h (1 Bft)
26.06.2005 19:00 23,9 C 78 % 1022 hPa 0,0 l/m W-NW 1,8 km/h (1 Bft)
26.06.2005 20:00 21,9 C 85 % 1022 hPa 0,0 l/m W 3,2 km/h (1 Bft)
26.06.2005 21:00 21,1 C 89 % 1022 hPa 0,0 l/m NW 5,4 km/h (1 Bft)
26.06.2005 22:00 20,5 C 89 % 1022 hPa 0,0 l/m NW 0,9 km/h (0 Bft)
26.06.2005 23:00 20,1 C 91 % 1022 hPa 0,0 l/m NW 1,0 km/h (0 Bft)
Min-Datum _ 20.06.05 20.06.05 24.06.05 - - 20.06.05
_ Min-Zeit 05:40 15:56 20:14 - - 00:00
Minimum _ 12,6 C 25 % 1014 hPa - - 0,0 km/h (0 Bft)
Max-Datum _ 24.06.05 25.06.05 26.06.05 25.06.05 - 25.06.05
_ Max-Zeit 18:16 05:38 08:44 00:52 - 00:35
Maximum _ 32,4 C 100 % 1023 hPa 5,0 l/m - 63,0 km/h
SW (8 Bft)
Durchschnitt _ 22,3 C 63 % 1020 hPa #12,0 l/m NW 6,6 km/h (2 Bft)

Durchschnitt Minimum Temp.21,6 C
Durchschnitt Maximum Temp.23,0 C